Time;durP1;ratioP1;P1;durP2;ratioP2;P2;SDS_P1;SDS_P2;PMS_P1;PMS_P2;Temp;Humidity;BMP_temperature;BMP_pressure;BME280_temperature;BME280_humidity;BME280_pressure;Samples;Min_cycle;Max_cycle;Signal;HPM_P1;HPM_P2
2022/08/10 00:04:15;;;;;;;0.10;0.10;;;;;;;12.84;100.00;102883.25;10451824;28;20321;-71
2022/08/10 00:09:15;;;;;;;0.10;0.10;;;;;;;12.74;100.00;102882.28;10452220;28;20087;-71
2022/08/10 00:14:16;;;;;;;0.10;0.10;;;;;;;12.58;100.00;102888.84;10451447;28;20025;-72
2022/08/10 00:19:17;;;;;;;0.08;0.08;;;;;;;12.38;100.00;102881.56;10450683;28;20608;-71
2022/08/10 00:24:17;;;;;;;0.10;0.10;;;;;;;12.31;100.00;102878.53;10450868;28;20436;-71
2022/08/10 00:29:17;;;;;;;0.10;0.10;;;;;;;12.31;100.00;102880.34;10450894;28;20020;-71
2022/08/10 00:34:18;;;;;;;0.10;0.10;;;;;;;12.24;100.00;102896.84;10450398;28;20020;-71
2022/08/10 00:39:18;;;;;;;0.10;0.10;;;;;;;12.09;100.00;102891.84;10451104;28;20275;-71
2022/08/10 00:44:19;;;;;;;0.10;0.10;;;;;;;11.91;100.00;102880.78;10450425;28;20025;-71
2022/08/10 00:49:19;;;;;;;0.00;0.00;;;;;;;11.86;100.00;102875.78;10450288;28;20100;-71
2022/08/10 00:54:20;;;;;;;0.10;0.10;;;;;;;11.89;100.00;102872.00;10449520;28;20424;-71
2022/08/10 00:59:20;;;;;;;0.03;0.03;;;;;;;12.03;100.00;102876.31;10450168;28;20476;-71
2022/08/10 01:04:20;;;;;;;0.00;0.00;;;;;;;11.96;100.00;102870.59;10451252;28;20021;-71
2022/08/10 01:09:31;;;;;;;0.00;0.00;;;;;;;11.86;100.00;102878.44;10449983;28;20021;-72
2022/08/10 01:14:43;;;;;;;0.10;0.10;;;;;;;11.81;100.00;102874.38;10447885;28;20650;-71
2022/08/10 01:20:13;;;;;;;0.00;0.00;;;;;;;11.70;100.00;102867.22;10449876;28;20017;-71
2022/08/10 01:25:47;;;;;;;0.08;0.08;;;;;;;11.48;100.00;102870.63;10422923;28;20044;-71
2022/08/10 01:30:54;;;;;;;0.00;0.00;;;;;;;11.35;100.00;102864.53;10447124;28;20142;-71
2022/08/10 01:36:03;;;;;;;0.10;0.10;;;;;;;11.46;100.00;102859.22;10450935;28;20029;-71
2022/08/10 01:41:30;;;;;;;0.00;0.00;;;;;;;11.51;100.00;102862.41;10449530;28;20017;-72
2022/08/10 01:46:33;;;;;;;0.03;0.03;;;;;;;11.45;100.00;102860.19;10448830;28;20047;-71
2022/08/10 01:51:55;;;;;;;0.10;0.10;;;;;;;11.36;100.00;102856.41;10447529;28;20028;-72
2022/08/10 01:56:57;;;;;;;0.00;0.00;;;;;;;11.37;100.00;102865.25;10448328;28;20297;-72
2022/08/10 02:02:02;;;;;;;0.10;0.10;;;;;;;11.36;100.00;102860.91;10447509;28;20017;-71
2022/08/10 02:07:05;;;;;;;0.00;0.00;;;;;;;11.25;100.00;102865.19;10448053;28;20176;-72
2022/08/10 02:12:12;;;;;;;0.03;0.03;;;;;;;11.13;100.00;102865.25;10448461;28;20648;-72
2022/08/10 02:17:18;;;;;;;0.10;0.10;;;;;;;10.93;100.00;102869.38;10447899;28;20028;-71
2022/08/10 02:22:20;;;;;;;0.00;0.00;;;;;;;10.83;100.00;102869.22;10447027;28;20016;-71
2022/08/10 02:27:23;;;;;;;0.00;0.00;;;;;;;10.83;100.00;102867.41;10447190;28;20025;-71
2022/08/10 02:32:25;;;;;;;0.10;0.10;;;;;;;10.87;100.00;102858.19;10447197;28;20082;-71
2022/08/10 02:37:26;;;;;;;0.10;0.10;;;;;;;10.87;100.00;102854.69;10446162;28;20029;-71
2022/08/10 02:42:38;;;;;;;0.10;0.10;;;;;;;10.90;100.00;102856.28;10452145;28;20384;-71
2022/08/10 02:47:47;;;;;;;0.00;0.00;;;;;;;10.95;100.00;102848.81;10455042;28;20435;-71
2022/08/10 02:52:54;;;;;;;0.05;0.05;;;;;;;11.00;100.00;102852.00;10455417;28;20013;-71
2022/08/10 02:57:56;;;;;;;0.10;0.10;;;;;;;11.05;100.00;102853.38;10454540;28;20040;-71
2022/08/10 03:02:58;;;;;;;0.00;0.00;;;;;;;11.04;100.00;102843.63;10453300;28;20025;-71
2022/08/10 03:08:06;;;;;;;0.08;0.08;;;;;;;11.07;100.00;102850.56;10454561;28;20041;-71
2022/08/10 03:13:09;;;;;;;0.10;0.10;;;;;;;11.05;100.00;102852.47;10455355;28;20020;-71
2022/08/10 03:18:11;;;;;;;0.00;0.00;;;;;;;10.95;100.00;102854.97;10452678;28;20447;-71
2022/08/10 03:23:22;;;;;;;0.10;0.10;;;;;;;10.72;100.00;102855.81;10454567;28;20021;-71
2022/08/10 03:28:25;;;;;;;0.00;0.00;;;;;;;10.63;100.00;102854.66;10454579;28;20021;-71
2022/08/10 03:33:29;;;;;;;0.00;0.00;;;;;;;10.56;100.00;102856.91;10456300;28;20016;-71
2022/08/10 03:38:29;;;;;;;0.00;0.00;;;;;;;10.63;100.00;102867.97;10455832;28;20045;-71
2022/08/10 03:43:30;;;;;;;0.10;0.10;;;;;;;10.65;100.00;102866.06;10454407;28;20071;-71
2022/08/10 03:48:32;;;;;;;0.00;0.00;;;;;;;10.58;100.00;102864.78;10449199;28;20029;-72
2022/08/10 03:53:34;;;;;;;0.05;0.05;;;;;;;10.33;100.00;102868.34;10452527;28;20090;-71
2022/08/10 03:58:34;;;;;;;0.08;0.08;;;;;;;10.40;100.00;102874.94;10452864;28;20013;-71
2022/08/10 04:03:35;;;;;;;0.05;0.05;;;;;;;10.88;100.00;102875.91;10434902;28;20051;-72
2022/08/10 04:08:39;;;;;;;0.00;0.00;;;;;;;11.23;100.00;102876.97;10451872;28;20044;-70
2022/08/10 04:13:40;;;;;;;;;;;;;;;11.45;100.00;102874.38;10450743;28;20395;-70
2022/08/10 04:18:40;;;;;;;0.10;0.10;;;;;;;11.77;100.00;102866.59;10456135;28;19917;-70
2022/08/10 04:23:44;;;;;;;0.10;0.10;;;;;;;12.19;100.00;102876.81;10450474;28;20037;-71
2022/08/10 04:28:47;;;;;;;0.10;0.10;;;;;;;13.07;100.00;102884.06;10451147;28;20321;-72
2022/08/10 04:33:49;;;;;;;0.10;0.10;;;;;;;14.23;100.00;102881.47;10445769;28;20020;-72
2022/08/10 04:38:52;;;;;;;0.10;0.10;;;;;;;15.88;100.00;102894.38;10449862;28;20063;-72
2022/08/10 04:43:52;;;;;;;0.10;0.10;;;;;;;17.37;100.00;102894.31;10451327;28;20032;-72
2022/08/10 04:48:52;;;;;;;0.10;0.10;;;;;;;18.73;100.00;102893.78;10450186;28;20472;-72
2022/08/10 04:53:53;;;;;;;0.10;0.10;;;;;;;19.90;97.16;102900.06;10447795;28;20025;-72
2022/08/10 04:58:53;;;;;;;0.00;0.00;;;;;;;20.87;92.32;102905.38;10445023;28;20028;-72
2022/08/10 05:03:53;;;;;;;0.10;0.10;;;;;;;21.55;88.52;102899.16;10440385;28;20037;-72
2022/08/10 05:08:54;;;;;;;0.10;0.10;;;;;;;22.45;81.97;102903.75;10449713;28;20287;-72
2022/08/10 05:13:54;;;;;;;0.00;0.00;;;;;;;22.97;79.43;102908.19;10446761;28;20456;-71
2022/08/10 05:18:55;;;;;;;0.10;0.10;;;;;;;23.59;77.60;102903.16;10449450;28;20260;-71
2022/08/10 05:23:55;;;;;;;0.00;0.00;;;;;;;23.75;75.07;102902.09;10448665;28;20029;-71
2022/08/10 05:28:55;;;;;;;0.00;0.00;;;;;;;23.66;75.21;102902.19;10448874;28;20439;-72
2022/08/10 05:33:56;;;;;;;0.00;0.00;;;;;;;24.00;75.07;102905.19;10448084;28;20033;-71
2022/08/10 05:38:57;;;;;;;0.10;0.10;;;;;;;24.28;74.38;102897.03;10448843;28;20017;-71
2022/08/10 05:43:58;;;;;;;0.00;0.00;;;;;;;24.57;73.62;102894.06;10449321;28;20400;-72
2022/08/10 05:48:58;;;;;;;0.10;0.10;;;;;;;24.92;71.51;102901.31;10448005;28;20025;-72
2022/08/10 05:53:59;;;;;;;0.00;0.00;;;;;;;25.09;70.32;102897.19;10448208;28;20024;-72
2022/08/10 05:59:00;;;;;;;0.10;0.10;;;;;;;25.57;70.97;102901.69;10446659;28;20415;-72
2022/08/10 06:04:01;;;;;;;0.10;0.10;;;;;;;25.90;70.64;102896.25;10447838;28;20091;-72
2022/08/10 06:09:05;;;;;;;0.10;0.10;;;;;;;26.20;69.71;102894.72;10446566;28;20120;-72
2022/08/10 06:19:26;;;;;;;0.00;0.00;;;;;;;27.18;68.49;102899.19;10456386;28;20017;-72
2022/08/10 06:24:35;;;;;;;0.10;0.10;;;;;;;27.86;67.10;102900.38;10455511;28;20022;-72
2022/08/10 06:29:39;;;;;;;0.10;0.10;;;;;;;28.30;65.08;102896.53;10456670;28;20638;-73
2022/08/10 06:34:49;;;;;;;0.10;0.10;;;;;;;28.55;64.07;102887.44;10454762;28;20028;-72
2022/08/10 06:39:50;;;;;;;0.10;0.10;;;;;;;28.65;62.74;102895.91;10455388;28;20028;-72
2022/08/10 06:45:04;;;;;;;0.10;0.10;;;;;;;28.93;63.31;102889.03;10453664;28;20025;-73
2022/08/10 06:50:28;;;;;;;0.10;0.10;;;;;;;28.46;61.78;102875.94;10453665;28;20476;-73
2022/08/10 06:55:32;;;;;;;0.10;0.10;;;;;;;27.97;60.99;102878.56;10452338;28;20098;-73
2022/08/10 07:00:39;;;;;;;0.03;0.03;;;;;;;27.54;61.54;102870.28;10451128;28;20025;-73
2022/08/10 07:05:46;;;;;;;0.10;0.10;;;;;;;27.42;63.77;102877.56;10453640;28;20021;-73
2022/08/10 07:10:48;;;;;;;0.10;0.10;;;;;;;28.19;63.27;102873.47;10454112;28;20092;-73
2022/08/10 07:15:50;;;;;;;0.10;0.10;;;;;;;28.51;55.67;102881.56;10456282;28;20024;-74
2022/08/10 07:20:52;;;;;;;0.10;0.10;;;;;;;28.52;54.86;102882.41;10464070;28;20020;-73
2022/08/10 07:25:53;;;;;;;0.10;0.10;;;;;;;28.49;53.95;102882.88;10455173;28;20503;-74
2022/08/10 07:30:55;;;;;;;;;;;;;;;28.34;54.12;102878.56;10456160;28;20025;-74
2022/08/10 07:35:56;;;;;;;0.10;0.10;;;;;;;28.40;55.81;102887.78;10469901;28;20298;-71
2022/08/10 07:40:59;;;;;;;;;;;;;;;28.75;53.01;102890.75;10497043;28;20013;-72
2022/08/10 07:46:03;;;;;;;0.10;0.10;;;;;;;28.86;54.06;102900.09;10496502;28;20011;-73
2022/08/10 07:51:06;;;;;;;0.10;0.10;;;;;;;28.94;51.19;102901.66;10496195;28;20531;-73
2022/08/10 07:56:07;;;;;;;0.10;0.10;;;;;;;29.14;53.14;102904.16;10495923;28;20021;-73
2022/08/10 08:01:07;;;;;;;0.10;0.10;;;;;;;29.39;50.08;102896.59;10495812;28;20016;-73
2022/08/10 08:06:08;;;;;;;0.10;0.10;;;;;;;29.69;49.84;102896.53;10470341;28;20031;-74
2022/08/10 08:11:12;;;;;;;0.10;0.10;;;;;;;29.60;49.09;102895.19;10454558;28;20078;-71
2022/08/10 08:16:14;;;;;;;0.10;0.10;;;;;;;29.17;48.13;102895.44;10454308;28;20031;-71
2022/08/10 08:21:15;;;;;;;0.05;0.05;;;;;;;28.98;49.38;102898.22;10493595;28;20032;-72
2022/08/10 08:26:17;;;;;;;0.10;0.10;;;;;;;29.11;49.30;102894.47;10481415;28;20051;-72
2022/08/10 08:31:20;;;;;;;0.10;0.10;;;;;;;29.32;47.05;102893.97;10453035;28;20029;-73
2022/08/10 08:36:22;;;;;;;0.10;0.10;;;;;;;29.57;48.48;102898.41;10452870;28;20024;-73
2022/08/10 08:41:34;;;;;;;0.10;0.10;;;;;;;29.55;49.20;102886.81;10452029;28;20020;-72
2022/08/10 08:46:55;;;;;;;0.10;0.10;;;;;;;29.77;49.20;102887.09;10452635;28;20109;-72
2022/08/10 08:52:02;;;;;;;0.00;0.00;;;;;;;29.66;48.66;102880.53;10452488;28;20021;-72
2022/08/10 08:57:13;;;;;;;0.10;0.10;;;;;;;29.83;48.01;102872.41;10452407;28;20028;-72
2022/08/10 09:02:20;;;;;;;0.05;0.05;;;;;;;29.60;48.34;102875.13;10452195;28;20025;-73
2022/08/10 09:07:20;;;;;;;0.10;0.10;;;;;;;29.25;47.52;102874.00;10459164;28;20527;-73
2022/08/10 09:12:45;;;;;;;0.10;0.10;;;;;;;28.87;47.85;102877.91;10493232;28;20082;-73
2022/08/10 09:18:01;;;;;;;0.10;0.10;;;;;;;28.40;50.99;102868.59;10446769;28;20110;-73
2022/08/10 09:23:38;;;;;;;0.10;0.10;;;;;;;28.46;49.66;102861.41;10451370;28;20036;-72
2022/08/10 09:28:41;;;;;;;0.10;0.10;;;;;;;28.62;49.02;102858.00;10422882;28;20295;-71
2022/08/10 09:34:01;;;;;;;0.10;0.10;;;;;;;29.02;49.24;102855.56;10449482;28;20040;-72
2022/08/10 09:39:11;;;;;;;0.10;0.10;;;;;;;29.10;50.38;102854.41;10443154;28;20524;-72
2022/08/10 09:44:43;;;;;;;0.00;0.00;;;;;;;28.80;47.20;102847.00;10475293;28;20480;-72
2022/08/10 09:50:06;;;;;;;0.10;0.10;;;;;;;28.37;48.61;102845.22;10460547;28;20480;-71
2022/08/10 09:55:38;;;;;;;0.10;0.10;;;;;;;28.03;47.81;102834.88;10492408;28;20070;-72
2022/08/10 10:01:08;;;;;;;0.00;0.00;;;;;;;28.26;53.11;102846.00;10500358;28;20484;-72
2022/08/10 10:06:28;;;;;;;0.10;0.10;;;;;;;29.00;48.20;102840.38;10522976;28;20020;-72
2022/08/10 10:11:42;;;;;;;0.10;0.10;;;;;;;28.16;45.64;102829.28;10483090;28;20491;-72
2022/08/10 10:17:04;;;;;;;0.00;0.00;;;;;;;27.46;49.16;102824.03;10491592;28;20019;-72
2022/08/10 10:22:20;;;;;;;0.10;0.10;;;;;;;27.42;49.94;102811.88;10527580;28;20114;-72
2022/08/10 10:27:38;;;;;;;0.10;0.10;;;;;;;27.24;51.94;102808.03;10509916;28;20178;-72
2022/08/10 10:32:57;;;;;;;0.10;0.10;;;;;;;27.15;50.47;102805.78;10503241;28;20518;-73
2022/08/10 10:38:00;;;;;;;0.00;0.00;;;;;;;27.07;49.61;102804.97;10501762;28;20040;-72
2022/08/10 10:43:19;;;;;;;0.00;0.00;;;;;;;27.32;50.13;102809.66;10509423;28;20028;-73
2022/08/10 10:48:38;;;;;;;0.10;0.10;;;;;;;27.38;51.00;102800.56;10514493;28;20036;-73
2022/08/10 10:53:38;;;;;;;0.00;0.00;;;;;;;27.48;52.38;102798.13;10517590;28;20122;-73
2022/08/10 10:59:02;;;;;;;0.10;0.10;;;;;;;27.60;49.30;102800.13;10507701;28;20103;-72
2022/08/10 11:04:14;;;;;;;0.00;0.00;;;;;;;27.40;49.68;102790.22;10495714;28;20016;-72
2022/08/10 11:09:23;;;;;;;0.00;0.00;;;;;;;27.60;49.60;102781.78;10507673;28;20187;-72
2022/08/10 11:14:30;;;;;;;0.00;0.00;;;;;;;27.29;47.95;102780.84;10502333;28;20403;-72
2022/08/10 11:20:08;;;;;;;0.10;0.10;;;;;;;27.14;52.39;102784.94;10502670;28;20020;-72
2022/08/10 11:25:19;;;;;;;0.00;0.00;;;;;;;27.47;52.15;102777.31;10483606;28;20038;-72
2022/08/10 11:30:51;;;;;;;0.10;0.10;;;;;;;27.69;48.89;102779.59;10511429;28;20365;-72
2022/08/10 11:36:19;;;;;;;0.03;0.03;;;;;;;27.39;47.78;102772.13;10497062;28;20484;-72
2022/08/10 11:41:39;;;;;;;0.00;0.00;;;;;;;27.22;50.04;102760.91;10495629;28;20456;-72
2022/08/10 11:46:52;;;;;;;0.00;0.00;;;;;;;27.31;51.69;102755.97;10512699;28;20028;-72
2022/08/10 11:51:59;;;;;;;0.00;0.00;;;;;;;27.21;48.04;102756.50;10510018;28;20028;-73
2022/08/10 11:57:00;;;;;;;0.00;0.00;;;;;;;27.23;46.84;102756.28;10505005;28;20088;-73
2022/08/10 12:02:03;;;;;;;0.10;0.10;;;;;;;27.10;48.11;102758.03;10495489;28;20074;-73
2022/08/10 12:07:07;;;;;;;0.00;0.00;;;;;;;27.12;47.39;102743.31;10513260;28;20020;-73
2022/08/10 12:12:08;;;;;;;0.00;0.00;;;;;;;27.10;46.75;102744.34;10508285;28;20024;-73
2022/08/10 12:17:19;;;;;;;0.00;0.00;;;;;;;27.12;49.63;102738.66;10494306;28;20029;-72
2022/08/10 12:22:29;;;;;;;0.00;0.00;;;;;;;27.17;49.30;102727.94;10501205;28;20257;-73
2022/08/10 12:27:50;;;;;;;0.00;0.00;;;;;;;27.03;47.41;102713.50;10497347;28;20563;-72
2022/08/10 12:33:00;;;;;;;0.00;0.00;;;;;;;27.16;47.30;102715.28;10501276;28;20455;-73
2022/08/10 12:38:13;;;;;;;0.00;0.00;;;;;;;27.05;46.24;102713.25;10504377;28;20379;-73
2022/08/10 12:43:20;;;;;;;0.00;0.00;;;;;;;26.98;46.90;102704.28;10513335;28;20032;-73
2022/08/10 12:48:35;;;;;;;0.00;0.00;;;;;;;26.87;47.36;102705.84;10503100;28;20024;-73
2022/08/10 12:53:48;;;;;;;0.10;0.10;;;;;;;26.76;46.44;102692.88;10489100;28;20038;-72
2022/08/10 12:58:49;;;;;;;0.10;0.10;;;;;;;26.82;45.50;102689.25;10517923;28;20546;-73
2022/08/10 13:03:56;;;;;;;0.00;0.00;;;;;;;26.95;46.12;102685.59;10510246;28;20099;-73
2022/08/10 13:09:11;;;;;;;0.10;0.10;;;;;;;26.92;48.19;102691.50;10489963;28;20024;-72
2022/08/10 13:14:20;;;;;;;0.00;0.00;;;;;;;26.79;47.40;102685.09;10512536;28;20035;-73
2022/08/10 13:19:23;;;;;;;0.00;0.00;;;;;;;26.89;49.37;102676.38;10510549;28;20036;-72
2022/08/10 13:24:28;;;;;;;0.10;0.10;;;;;;;26.99;48.37;102673.97;10500692;28;20021;-72
2022/08/10 13:29:33;;;;;;;0.00;0.00;;;;;;;26.90;46.19;102667.13;10511592;28;20074;-72
2022/08/10 13:34:36;;;;;;;0.10;0.10;;;;;;;26.79;45.92;102668.69;10506921;28;20153;-72
2022/08/10 13:39:40;;;;;;;0.10;0.10;;;;;;;26.70;46.18;102660.97;10481273;28;20390;-72
2022/08/10 13:44:43;;;;;;;0.00;0.00;;;;;;;26.71;43.75;102663.50;10469789;28;20369;-73
2022/08/10 13:49:53;;;;;;;0.10;0.10;;;;;;;26.57;44.88;102665.50;10490741;28;20033;-73
2022/08/10 13:54:56;;;;;;;0.00;0.00;;;;;;;26.73;45.70;102647.69;10492478;28;20024;-73
2022/08/10 13:59:59;;;;;;;0.00;0.00;;;;;;;26.90;45.18;102636.22;10498457;28;20378;-73
2022/08/10 14:05:01;;;;;;;0.00;0.00;;;;;;;26.74;47.27;102641.19;10512663;28;20032;-73
2022/08/10 14:10:06;;;;;;;0.00;0.00;;;;;;;26.79;44.52;102637.78;10492172;28;20060;-73
2022/08/10 14:15:12;;;;;;;0.10;0.10;;;;;;;26.77;43.91;102639.91;10499789;28;20024;-73
2022/08/10 14:20:14;;;;;;;0.00;0.00;;;;;;;26.70;44.33;102631.75;10491654;28;20082;-72
2022/08/10 14:25:14;;;;;;;0.00;0.00;;;;;;;26.76;43.85;102635.47;10502052;28;20307;-72
2022/08/10 14:30:16;;;;;;;0.00;0.00;;;;;;;26.85;47.14;102628.69;10515088;28;20021;-72
2022/08/10 14:35:18;;;;;;;0.00;0.00;;;;;;;26.92;44.18;102617.69;10505165;28;20379;-72
2022/08/10 14:40:21;;;;;;;0.03;0.03;;;;;;;26.94;45.65;102604.63;10503884;28;20023;-72
2022/08/10 14:45:30;;;;;;;0.00;0.00;;;;;;;26.82;48.14;102599.91;10502035;28;20349;-72
2022/08/10 14:50:32;;;;;;;0.00;0.00;;;;;;;26.78;48.38;102598.66;10510355;28;20036;-73
2022/08/10 14:55:33;;;;;;;0.00;0.00;;;;;;;26.77;47.54;102602.47;10517929;28;20032;-73
2022/08/10 15:00:39;;;;;;;0.00;0.00;;;;;;;26.76;46.74;102603.53;10525707;28;20470;-72
2022/08/10 15:05:40;;;;;;;0.00;0.00;;;;;;;26.79;46.66;102586.69;10526533;28;20024;-73
2022/08/10 15:10:42;;;;;;;0.00;0.00;;;;;;;26.79;46.36;102583.97;10511923;28;20407;-73
2022/08/10 15:15:43;;;;;;;0.10;0.10;;;;;;;26.78;47.05;102586.91;10504783;28;20017;-73
2022/08/10 15:20:49;;;;;;;0.00;0.00;;;;;;;26.76;47.33;102575.34;10502019;28;20037;-72
2022/08/10 15:25:50;;;;;;;0.10;0.10;;;;;;;26.72;46.85;102577.69;10501524;28;20023;-72
2022/08/10 15:30:54;;;;;;;0.05;0.05;;;;;;;26.64;47.69;102572.50;10503957;28;20020;-72
2022/08/10 15:41:21;;;;;;;0.00;0.00;;;;;;;26.48;47.60;102562.13;10507634;28;20020;-72
2022/08/10 15:46:32;;;;;;;0.00;0.00;;;;;;;26.43;48.42;102562.81;10519287;28;20028;-72
2022/08/10 15:51:46;;;;;;;0.00;0.00;;;;;;;26.27;48.64;102552.41;10510871;28;20024;-72
2022/08/10 15:56:58;;;;;;;0.00;0.00;;;;;;;26.24;48.13;102555.59;10511530;28;20155;-72
2022/08/10 16:02:11;;;;;;;0.00;0.00;;;;;;;26.19;49.86;102559.84;10511113;28;20027;-72
2022/08/10 16:07:18;;;;;;;0.10;0.10;;;;;;;26.11;49.01;102556.53;10470705;28;20456;-72
2022/08/10 16:12:25;;;;;;;0.00;0.00;;;;;;;26.08;51.34;102560.56;10483287;28;20476;-72
2022/08/10 16:17:27;;;;;;;0.00;0.00;;;;;;;26.03;50.84;102557.63;10514265;28;20081;-72
2022/08/10 16:22:31;;;;;;;0.00;0.00;;;;;;;26.03;50.80;102549.44;10504642;28;20107;-72
2022/08/10 16:27:34;;;;;;;0.00;0.00;;;;;;;26.04;48.62;102553.88;10512045;28;20075;-72
2022/08/10 16:32:37;;;;;;;0.00;0.00;;;;;;;26.02;48.38;102549.69;10493937;28;20021;-72
2022/08/10 16:37:39;;;;;;;0.00;0.00;;;;;;;26.03;50.23;102551.34;10520554;28;20016;-72
2022/08/10 16:47:56;;;;;;;0.00;0.00;;;;;;;25.91;51.73;102535.66;10484450;28;20127;-74
2022/08/10 16:53:00;;;;;;;0.00;0.00;;;;;;;25.80;51.35;102530.03;10509652;28;20036;-74
2022/08/10 16:58:02;;;;;;;0.00;0.00;;;;;;;25.65;52.07;102523.00;10530636;28;20020;-74
2022/08/10 17:03:07;;;;;;;0.00;0.00;;;;;;;25.52;49.87;102525.81;10534655;28;20028;-74
2022/08/10 17:08:11;;;;;;;0.00;0.00;;;;;;;25.45;50.28;102517.66;10535050;28;20019;-74
2022/08/10 17:13:14;;;;;;;0.00;0.00;;;;;;;25.38;50.41;102516.84;10535294;28;20020;-74
2022/08/10 17:18:26;;;;;;;0.00;0.00;;;;;;;25.32;50.07;102523.19;10535030;28;20470;-74
2022/08/10 17:23:31;;;;;;;0.10;0.10;;;;;;;25.26;49.39;102513.97;10534698;28;20035;-74
2022/08/10 17:28:37;;;;;;;0.00;0.00;;;;;;;25.18;51.00;102511.47;10517138;28;20402;-74
2022/08/10 17:33:40;;;;;;;0.00;0.00;;;;;;;25.09;53.13;102507.28;10534575;28;20027;-74
2022/08/10 17:38:47;;;;;;;0.00;0.00;;;;;;;24.90;55.91;102497.28;10534423;28;20051;-74
2022/08/10 17:43:54;;;;;;;0.00;0.00;;;;;;;24.69;57.02;102495.66;10534244;28;20544;-74
2022/08/10 17:48:56;;;;;;;0.03;0.03;;;;;;;24.49;56.09;102495.69;10534236;28;20036;-74
2022/08/10 17:53:59;;;;;;;0.05;0.05;;;;;;;24.30;58.32;102498.22;10534068;28;20024;-73
2022/08/10 17:59:02;;;;;;;0.08;0.08;;;;;;;24.10;58.67;102502.81;10533991;28;20024;-73
2022/08/10 18:04:11;;;;;;;0.10;0.10;;;;;;;23.92;59.15;102500.72;10533952;28;20475;-73
2022/08/10 18:09:23;;;;;;;0.00;0.00;;;;;;;23.73;60.53;102508.63;10533777;28;20020;-73
2022/08/10 18:14:28;;;;;;;0.10;0.10;;;;;;;23.54;62.09;102503.94;10541642;28;20077;-73
2022/08/10 18:19:29;;;;;;;0.00;0.00;;;;;;;23.37;62.58;102514.34;10541763;28;20020;-73
2022/08/10 18:24:31;;;;;;;0.00;0.00;;;;;;;23.16;63.97;102490.84;10523274;28;20031;-73
2022/08/10 18:29:33;;;;;;;0.00;0.00;;;;;;;22.97;64.59;102494.31;10541309;28;20027;-73
2022/08/10 18:34:35;;;;;;;0.08;0.08;;;;;;;22.77;64.49;102500.44;10541235;28;20214;-73
2022/08/10 18:39:42;;;;;;;0.00;0.00;;;;;;;22.62;64.92;102504.31;10541078;28;20095;-73
2022/08/10 18:45:20;;;;;;;0.00;0.00;;;;;;;22.49;66.08;102511.31;10524563;28;20058;-73
2022/08/10 18:50:28;;;;;;;0.00;0.00;;;;;;;22.33;68.38;102511.63;10517606;28;20043;-73
2022/08/10 18:55:32;;;;;;;0.00;0.00;;;;;;;21.94;70.04;102515.63;10529430;28;20028;-73
2022/08/10 19:01:08;;;;;;;0.10;0.10;;;;;;;21.56;72.57;102512.31;10498447;28;20025;-73
2022/08/10 19:06:28;;;;;;;0.10;0.10;;;;;;;21.21;73.26;102521.03;10498170;28;20035;-73
2022/08/10 19:11:46;;;;;;;0.10;0.10;;;;;;;21.06;72.68;102525.63;10480523;28;20120;-73
2022/08/10 19:17:06;;;;;;;0.00;0.00;;;;;;;20.91;74.94;102527.47;10536783;28;20097;-73
2022/08/10 19:22:25;;;;;;;0.00;0.00;;;;;;;20.64;77.68;102528.97;10538618;28;20053;-73
2022/08/10 19:27:40;;;;;;;0.00;0.00;;;;;;;20.35;82.82;102534.06;10536172;28;20120;-73
2022/08/10 19:32:46;;;;;;;0.00;0.00;;;;;;;20.05;93.57;102532.31;10498807;28;20365;-73
2022/08/10 19:38:21;;;;;;;0.10;0.10;;;;;;;19.80;92.33;102535.16;10568719;28;20497;-73
2022/08/10 19:43:39;;;;;;;0.10;0.10;;;;;;;19.37;93.72;102539.25;10580553;28;20020;-73
2022/08/10 19:49:01;;;;;;;0.00;0.00;;;;;;;19.00;92.33;102544.31;10580285;28;20111;-73
2022/08/10 19:54:32;;;;;;;0.00;0.00;;;;;;;18.82;91.68;102550.91;10580001;28;20031;-73
2022/08/10 19:59:42;;;;;;;0.10;0.10;;;;;;;18.77;90.99;102544.19;10538966;28;20082;-72
2022/08/10 20:05:09;;;;;;;0.10;0.10;;;;;;;18.68;91.01;102555.97;10525326;28;20024;-73
2022/08/10 20:10:22;;;;;;;0.10;0.10;;;;;;;18.64;91.03;102559.19;10524849;28;20036;-73
2022/08/10 20:15:33;;;;;;;0.00;0.00;;;;;;;18.44;91.73;102548.75;10539359;28;20032;-73
2022/08/10 20:20:48;;;;;;;0.10;0.10;;;;;;;18.26;93.66;102550.75;10538114;28;20023;-73
2022/08/10 20:26:19;;;;;;;0.10;0.10;;;;;;;18.17;94.83;102552.63;10537257;28;20103;-73
2022/08/10 20:31:25;;;;;;;0.10;0.10;;;;;;;18.13;96.13;102555.81;10527340;28;20032;-73
2022/08/10 20:36:30;;;;;;;0.10;0.10;;;;;;;18.03;96.93;102550.56;10526305;28;20103;-73
2022/08/10 20:41:42;;;;;;;0.10;0.10;;;;;;;18.03;97.53;102561.34;10528814;28;20035;-74
2022/08/10 20:47:08;;;;;;;0.10;0.10;;;;;;;17.95;98.41;102574.81;10527438;28;20024;-73
2022/08/10 20:52:09;;;;;;;0.10;0.10;;;;;;;17.83;98.79;102566.19;10526528;28;20028;-74
2022/08/10 20:57:16;;;;;;;0.00;0.00;;;;;;;17.65;100.00;102575.22;10513847;28;20059;-74
2022/08/10 21:02:25;;;;;;;0.10;0.10;;;;;;;17.47;100.00;102573.63;10524111;28;20371;-74
2022/08/10 21:07:37;;;;;;;0.10;0.10;;;;;;;17.17;100.00;102576.69;10526969;28;20031;-73
2022/08/10 21:13:15;;;;;;;0.10;0.10;;;;;;;16.95;100.00;102569.16;10534401;28;20016;-73
2022/08/10 21:18:44;;;;;;;0.00;0.00;;;;;;;16.69;100.00;102569.13;10518074;28;20604;-74
2022/08/10 21:23:50;;;;;;;0.10;0.10;;;;;;;16.60;100.00;102570.06;10521771;28;20528;-73
2022/08/10 22:52:15;;;;;;;0.10;0.10;;;;;;;14.79;100.00;102540.31;10461252;28;20033;-75
2022/08/10 23:02:37;;;;;;;0.10;0.10;;;;;;;14.56;100.00;102544.31;10452644;28;20487;-75
2022/08/10 23:07:50;;;;;;;0.10;0.10;;;;;;;14.55;100.00;102548.00;10454169;28;20016;-76
2022/08/10 23:13:01;;;;;;;0.10;0.10;;;;;;;14.63;100.00;102534.69;10454218;28;20024;-75
2022/08/10 23:23:27;;;;;;;0.10;0.10;;;;;;;14.87;100.00;102532.38;10454748;28;20056;-75
2022/08/10 23:28:33;;;;;;;0.10;0.10;;;;;;;14.91;100.00;102538.31;10443129;28;20024;-74
2022/08/10 23:33:35;;;;;;;0.10;0.10;;;;;;;15.00;100.00;102533.91;10453613;28;20076;-73
2022/08/10 23:38:36;;;;;;;0.10;0.10;;;;;;;15.01;100.00;102535.56;10453483;28;20452;-76
2022/08/10 23:43:43;;;;;;;0.10;0.10;;;;;;;15.00;100.00;102536.56;10453207;28;20035;-74
2022/08/10 23:48:46;;;;;;;0.10;0.10;;;;;;;15.03;100.00;102544.34;10453278;28;20549;-75
2022/08/10 23:53:48;;;;;;;0.10;0.10;;;;;;;15.01;100.00;102541.81;10452842;28;20028;-75
2022/08/10 23:58:58;;;;;;;0.10;0.10;;;;;;;14.95;100.00;102537.00;10444471;28;20020;-75
